Time;durP1;ratioP1;P1;durP2;ratioP2;P2;SDS_P1;SDS_P2;PMS_P1;PMS_P2;Temp;Humidity;BMP_temperature;BMP_pressure;BME280_temperature;BME280_humidity;BME280_pressure;Samples;Min_cycle;Max_cycle;Signal;HPM_P1;HPM_P2
2022/06/03 00:01:32;;;;;;;13.50;6.25;;;;;;;;;;5050503;28;20279;-66
2022/06/03 00:04:37;;;;;;;12.63;6.38;;;;;;;;;;5050761;28;20138;-66
2022/06/03 00:07:03;;;;;;;14.35;6.40;;;;;;;;;;5027900;28;20055;-66
2022/06/03 00:09:44;;;;;;;13.18;6.18;;;;;;;;;;5028113;28;20465;-66
2022/06/03 00:12:26;;;;;;;13.05;6.25;;;;;;;;;;5040477;28;20092;-66
2022/06/03 00:15:15;;;;;;;14.18;6.40;;;;;;;;;;5050076;28;20156;-65
2022/06/03 00:17:57;;;;;;;13.18;6.25;;;;;;;;;;5046927;28;20076;-65
2022/06/03 00:20:41;;;;;;;14.30;6.60;;;;;;;;;;5050287;28;20114;-66
2022/06/03 00:23:19;;;;;;;13.38;6.93;;;;;;;;;;5050507;28;20049;-66
2022/06/03 00:25:45;;;;;;;19.90;7.38;;;;;;;;;;5050358;28;20087;-65
2022/06/03 00:28:18;;;;;;;15.93;7.40;;;;;;;;;;5049999;28;20048;-66
2022/06/03 00:30:51;;;;;;;14.68;7.20;;;;;;;;;;5050376;28;20152;-66
2022/06/03 00:33:32;;;;;;;16.42;7.80;;;;;;;;;;5050049;28;20076;-66
2022/06/03 00:35:58;;;;;;;14.80;7.40;;;;;;;;;;5048623;28;20041;-64
2022/06/03 00:38:43;;;;;;;14.70;6.85;;;;;;;;;;5049993;28;20134;-66
2022/06/03 00:41:15;;;;;;;14.48;7.13;;;;;;;;;;5049011;28;20049;-65
2022/06/03 00:43:47;;;;;;;16.00;6.90;;;;;;;;;;5050029;28;20053;-66
2022/06/03 00:46:15;;;;;;;11.95;6.88;;;;;;;;;;5049497;28;20060;-66
2022/06/03 00:48:48;;;;;;;15.80;6.35;;;;;;;;;;5049490;28;20088;-66
2022/06/03 00:51:35;;;;;;;16.35;6.57;;;;;;;;;;5049996;28;20102;-66
2022/06/03 00:54:22;;;;;;;17.23;7.38;;;;;;;;;;5049729;28;20048;-66
2022/06/03 00:56:48;;;;;;;15.23;7.28;;;;;;;;;;5049978;28;20119;-64
2022/06/03 00:59:44;;;;;;;21.00;8.50;;;;;;;;;;5048135;28;20432;-67
2022/06/03 01:02:10;;;;;;;15.70;6.80;;;;;;;;;;5029424;28;20534;-66
2022/06/03 01:04:43;;;;;;;16.30;7.45;;;;;;;;;;5049414;28;20045;-66
2022/06/03 01:07:20;;;;;;;16.77;7.55;;;;;;;;;;5049128;28;20361;-65
2022/06/03 01:09:52;;;;;;;15.38;7.85;;;;;;;;;;5048353;28;20051;-66
2022/06/03 01:12:27;;;;;;;17.50;7.70;;;;;;;;;;5049090;28;20132;-66
2022/06/03 01:15:09;;;;;;;15.13;7.93;;;;;;;;;;5049187;28;20037;-66
2022/06/03 01:17:35;;;;;;;15.50;7.72;;;;;;;;;;5049313;28;20056;-65
2022/06/03 01:20:06;;;;;;;15.07;7.82;;;;;;;;;;5049005;28;20083;-66
2022/06/03 01:22:51;;;;;;;14.02;8.13;;;;;;;;;;5049482;28;20049;-66
2022/06/03 01:25:35;;;;;;;15.07;8.05;;;;;;;;;;5048487;28;20471;-67
2022/06/03 01:28:20;;;;;;;13.80;7.65;;;;;;;;;;5049191;28;20504;-67
2022/06/03 01:31:04;;;;;;;18.42;7.60;;;;;;;;;;5048655;28;20061;-66
2022/06/03 01:33:44;;;;;;;14.90;7.55;;;;;;;;;;5049246;28;20048;-66
2022/06/03 01:36:23;;;;;;;15.77;8.07;;;;;;;;;;5048784;28;20396;-66
2022/06/03 01:38:49;;;;;;;15.20;8.23;;;;;;;;;;5048600;28;20106;-66
2022/06/03 01:41:42;;;;;;;16.85;8.02;;;;;;;;;;5049072;28;20049;-66
2022/06/03 01:44:26;;;;;;;17.55;8.85;;;;;;;;;;5048892;28;20084;-66
2022/06/03 01:46:52;;;;;;;15.63;8.43;;;;;;;;;;5049218;28;20430;-67
2022/06/03 01:49:39;;;;;;;15.05;7.75;;;;;;;;;;5048464;28;20453;-65
2022/06/03 01:52:24;;;;;;;14.38;8.18;;;;;;;;;;5049744;28;20048;-66
2022/06/03 01:55:02;;;;;;;15.75;7.60;;;;;;;;;;5052695;28;20092;-67
2022/06/03 01:57:43;;;;;;;15.32;7.57;;;;;;;;;;5053084;28;20045;-66
2022/06/03 02:00:12;;;;;;;13.73;7.22;;;;;;;;;;5052671;28;20044;-66
2022/06/03 02:02:54;;;;;;;14.85;7.63;;;;;;;;;;5051384;28;20140;-67
2022/06/03 02:05:23;;;;;;;15.05;6.63;;;;;;;;;;5052688;28;20109;-67
2022/06/03 02:08:07;;;;;;;15.98;6.78;;;;;;;;;;5052823;28;20112;-67
2022/06/03 02:10:39;;;;;;;12.60;6.05;;;;;;;;;;5052788;28;20060;-66
2022/06/03 02:13:21;;;;;;;14.50;6.18;;;;;;;;;;5052692;28;20134;-66
2022/06/03 02:15:57;;;;;;;13.32;6.32;;;;;;;;;;5050994;28;20111;-67
2022/06/03 02:18:42;;;;;;;14.07;6.97;;;;;;;;;;5052336;28;20048;-66
2022/06/03 02:21:16;;;;;;;15.55;7.28;;;;;;;;;;5052251;28;20103;-66
2022/06/03 02:23:54;;;;;;;12.68;6.93;;;;;;;;;;5052643;28;20068;-67
2022/06/03 02:26:26;;;;;;;19.05;7.03;;;;;;;;;;5051819;28;20180;-66
2022/06/03 02:30:24;;;;;;;13.95;6.85;;;;;;;;;;5052378;28;20155;-68
2022/06/03 02:31:52;;;;;;;14.93;7.03;;;;;;;;;;5052245;28;20150;-66
2022/06/03 02:34:37;;;;;;;13.30;7.45;;;;;;;;;;5052378;28;20040;-67
2022/06/03 02:37:15;;;;;;;15.88;7.35;;;;;;;;;;5051979;28;20205;-67
2022/06/03 02:39:56;;;;;;;13.02;6.82;;;;;;;;;;5052325;28;20041;-67
2022/06/03 02:42:28;;;;;;;13.55;7.28;;;;;;;;;;5051070;28;20144;-66
2022/06/03 02:45:15;;;;;;;14.15;7.10;;;;;;;;;;5051989;28;20049;-66
2022/06/03 02:47:42;;;;;;;17.58;8.13;;;;;;;;;;5052401;28;20052;-66
2022/06/03 02:50:09;;;;;;;;;;;;;;;;;;5052417;28;20128;-64
2022/06/03 02:52:57;;;;;;;14.10;8.32;;;;;;;;;;5050837;28;19936;-67
2022/06/03 02:55:30;;;;;;;17.73;8.57;;;;;;;;;;5050656;28;20438;-66
2022/06/03 02:58:05;;;;;;;15.80;8.52;;;;;;;;;;5052146;28;20052;-66
2022/06/03 03:00:45;;;;;;;16.00;9.20;;;;;;;;;;5052231;28;20045;-66
2022/06/03 03:03:16;;;;;;;15.13;8.75;;;;;;;;;;5051597;28;20044;-66
2022/06/03 03:06:01;;;;;;;15.23;8.25;;;;;;;;;;5050473;28;20171;-66
2022/06/03 03:08:36;;;;;;;15.60;8.25;;;;;;;;;;5051523;28;20049;-66
2022/06/03 03:11:21;;;;;;;17.52;8.70;;;;;;;;;;5050351;28;20334;-66
2022/06/03 03:13:47;;;;;;;15.52;9.07;;;;;;;;;;5051427;28;20049;-66
2022/06/03 03:16:22;;;;;;;20.20;9.32;;;;;;;;;;5051130;28;20437;-66
2022/06/03 03:18:57;;;;;;;16.90;8.27;;;;;;;;;;5051734;28;20048;-66
2022/06/03 03:21:38;;;;;;;15.90;8.68;;;;;;;;;;5051869;28;20530;-66
2022/06/03 03:24:17;;;;;;;17.38;9.20;;;;;;;;;;5050161;28;20053;-67
2022/06/03 03:26:54;;;;;;;16.55;8.60;;;;;;;;;;5050665;28;20110;-66
2022/06/03 03:29:39;;;;;;;16.02;8.23;;;;;;;;;;5050817;28;20049;-66
2022/06/03 03:32:15;;;;;;;19.90;9.07;;;;;;;;;;5050771;28;20093;-67
2022/06/03 03:34:47;;;;;;;18.25;10.07;;;;;;;;;;5050821;28;20086;-67
2022/06/03 03:37:28;;;;;;;16.27;10.07;;;;;;;;;;5050875;28;20049;-65
2022/06/03 03:39:57;;;;;;;22.77;12.10;;;;;;;;;;5050899;28;20162;-66
2022/06/03 03:42:23;;;;;;;18.02;11.30;;;;;;;;;;5050848;28;20146;-66
2022/06/03 03:45:00;;;;;;;17.55;11.60;;;;;;;;;;5050511;28;20384;-66
2022/06/03 03:47:42;;;;;;;18.45;12.27;;;;;;;;;;5050829;28;20049;-66
2022/06/03 03:50:20;;;;;;;19.13;12.30;;;;;;;;;;5050699;28;20130;-66
2022/06/03 03:53:09;;;;;;;23.92;12.50;;;;;;;;;;5050502;28;20067;-66
2022/06/03 03:55:48;;;;;;;19.45;12.85;;;;;;;;;;5043958;28;20103;-66
2022/06/03 03:58:17;;;;;;;19.58;13.77;;;;;;;;;;5050114;28;20103;-66
2022/06/03 04:01:06;;;;;;;22.27;14.40;;;;;;;;;;5050375;28;20124;-66
2022/06/03 04:03:51;;;;;;;23.05;14.15;;;;;;;;;;5043755;28;20088;-66
2022/06/03 04:06:39;;;;;;;24.13;14.68;;;;;;;;;;5048533;28;20128;-64
2022/06/03 04:09:24;;;;;;;23.88;15.10;;;;;;;;;;5031932;28;20437;-67
2022/06/03 04:12:05;;;;;;;19.65;14.80;;;;;;;;;;5048549;28;20582;-65
2022/06/03 04:14:53;;;;;;;22.92;15.70;;;;;;;;;;5049008;28;20045;-67
2022/06/03 04:17:38;;;;;;;24.30;15.25;;;;;;;;;;5049715;28;20053;-65
2022/06/03 04:20:16;;;;;;;22.48;15.18;;;;;;;;;;5049482;28;20434;-66
2022/06/03 04:23:01;;;;;;;22.30;14.48;;;;;;;;;;5049051;28;20089;-66
2022/06/03 04:25:27;;;;;;;21.25;13.93;;;;;;;;;;5047756;28;20110;-65
2022/06/03 04:28:17;;;;;;;19.92;13.48;;;;;;;;;;5049176;28;20053;-66
2022/06/03 04:30:56;;;;;;;20.52;13.57;;;;;;;;;;5047663;28;20055;-66
2022/06/03 04:33:28;;;;;;;23.13;13.30;;;;;;;;;;5049030;28;20521;-64
2022/06/03 04:36:21;;;;;;;21.58;12.93;;;;;;;;;;5049520;28;20106;-68
2022/06/03 04:39:06;;;;;;;19.60;11.77;;;;;;;;;;5048123;28;20182;-67
2022/06/03 04:41:32;;;;;;;20.70;12.05;;;;;;;;;;5049423;28;20429;-67
2022/06/03 04:44:17;;;;;;;20.83;11.70;;;;;;;;;;5049407;28;20044;-68
2022/06/03 04:46:55;;;;;;;17.33;10.88;;;;;;;;;;5049068;28;20132;-66
2022/06/03 04:49:24;;;;;;;20.58;10.80;;;;;;;;;;5048974;28;20444;-66
2022/06/03 04:52:08;;;;;;;21.77;11.50;;;;;;;;;;5048812;28;20169;-67
2022/06/03 04:54:44;;;;;;;20.33;11.77;;;;;;;;;;5048502;28;20045;-67
2022/06/03 04:57:28;;;;;;;19.77;10.70;;;;;;;;;;5048611;28;20131;-68
2022/06/03 04:59:57;;;;;;;20.15;11.40;;;;;;;;;;5048659;28;20144;-67
2022/06/03 05:02:23;;;;;;;18.55;10.90;;;;;;;;;;5048700;28;20338;-68
2022/06/03 05:04:52;;;;;;;21.73;11.05;;;;;;;;;;5048573;28;20194;-68
2022/06/03 05:07:28;;;;;;;21.42;10.88;;;;;;;;;;5048548;28;20045;-67
2022/06/03 05:10:26;;;;;;;16.42;10.32;;;;;;;;;;5048478;28;20106;-68
2022/06/03 05:13:09;;;;;;;17.38;10.63;;;;;;;;;;5025373;28;20071;-69
2022/06/03 05:15:35;;;;;;;17.45;10.23;;;;;;;;;;5048433;28;20102;-68
2022/06/03 05:18:23;;;;;;;21.23;9.88;;;;;;;;;;5047981;28;20049;-68
2022/06/03 05:21:19;;;;;;;18.70;10.30;;;;;;;;;;5047940;28;20107;-68
2022/06/03 05:24:04;;;;;;;19.10;9.80;;;;;;;;;;5048255;28;20057;-69
2022/06/03 05:26:48;;;;;;;18.40;9.65;;;;;;;;;;5046827;28;20053;-65
2022/06/03 05:29:23;;;;;;;20.05;8.73;;;;;;;;;;5048170;28;20053;-67
2022/06/03 05:32:06;;;;;;;18.67;9.02;;;;;;;;;;5047912;28;20083;-67
2022/06/03 05:34:43;;;;;;;16.63;8.48;;;;;;;;;;5047818;28;20118;-66
2022/06/03 05:37:12;;;;;;;18.95;9.73;;;;;;;;;;5048645;28;20383;-66
2022/06/03 05:39:41;;;;;;;19.13;10.23;;;;;;;;;;5048462;28;20351;-66
2022/06/03 05:42:27;;;;;;;13.90;8.57;;;;;;;;;;5046716;28;20377;-70
2022/06/03 05:44:53;;;;;;;23.80;13.82;;;;;;;;;;5048799;28;20069;-68
2022/06/03 05:47:29;;;;;;;15.70;9.27;;;;;;;;;;5048019;28;20072;-67
2022/06/03 05:50:04;;;;;;;17.85;7.60;;;;;;;;;;5048517;28;20060;-66
2022/06/03 05:52:49;;;;;;;15.20;7.65;;;;;;;;;;5048739;28;20444;-69
2022/06/03 05:55:34;;;;;;;19.58;7.60;;;;;;;;;;5047766;28;20045;-66
2022/06/03 05:58:05;;;;;;;14.40;7.03;;;;;;;;;;5048383;28;20133;-67
2022/06/03 06:00:50;;;;;;;14.43;6.38;;;;;;;;;;5048043;28;20113;-67
2022/06/03 06:03:35;;;;;;;13.43;6.70;;;;;;;;;;5048152;28;20045;-67
2022/06/03 06:06:07;;;;;;;14.40;7.10;;;;;;;;;;5047927;28;20129;-66
2022/06/03 06:08:50;;;;;;;15.20;7.20;;;;;;;;;;5048010;28;20132;-67
2022/06/03 06:11:35;;;;;;;13.38;7.05;;;;;;;;;;5048207;28;20076;-67
2022/06/03 06:14:20;;;;;;;16.00;6.93;;;;;;;;;;5048149;28;20056;-65
2022/06/03 06:16:46;;;;;;;14.70;6.40;;;;;;;;;;5047847;28;20509;-67
2022/06/03 06:19:12;;;;;;;;;;;;;;;;;;5048313;28;20067;-66
2022/06/03 06:21:56;;;;;;;12.20;5.95;;;;;;;;;;5047735;28;20313;-69
2022/06/03 06:24:22;;;;;;;12.38;6.32;;;;;;;;;;5047728;28;20128;-67
2022/06/03 06:27:03;;;;;;;15.00;6.70;;;;;;;;;;5046361;28;20049;-67
2022/06/03 06:29:52;;;;;;;14.32;5.68;;;;;;;;;;5047693;28;20128;-68
2022/06/03 06:32:29;;;;;;;14.80;5.95;;;;;;;;;;5036821;28;20407;-67
2022/06/03 06:35:10;;;;;;;13.00;5.50;;;;;;;;;;5047626;28;20415;-66
2022/06/03 06:37:59;;;;;;;11.77;5.63;;;;;;;;;;5047792;28;20104;-68
2022/06/03 06:40:47;;;;;;;11.07;4.57;;;;;;;;;;5040388;28;20052;-67
2022/06/03 06:43:14;;;;;;;13.02;4.55;;;;;;;;;;5040052;28;20069;-68
2022/06/03 06:45:49;;;;;;;9.85;4.57;;;;;;;;;;5049483;28;20164;-67
2022/06/03 06:48:18;;;;;;;14.82;4.45;;;;;;;;;;5051511;28;20080;-66
2022/06/03 06:50:44;;;;;;;13.35;4.40;;;;;;;;;;5049754;28;20044;-65
2022/06/03 06:53:17;;;;;;;11.25;4.57;;;;;;;;;;5051093;28;20060;-68
2022/06/03 06:55:55;;;;;;;12.70;5.25;;;;;;;;;;5050978;28;20056;-65
2022/06/03 06:58:43;;;;;;;11.75;3.83;;;;;;;;;;5051072;28;20183;-67
2022/06/03 07:01:10;;;;;;;10.95;3.58;;;;;;;;;;5050754;28;20053;-66
2022/06/03 07:03:39;;;;;;;10.30;3.60;;;;;;;;;;5051056;28;20056;-66
2022/06/03 07:06:17;;;;;;;10.30;3.28;;;;;;;;;;5050728;28;20049;-66
2022/06/03 07:09:03;;;;;;;10.38;3.38;;;;;;;;;;5051341;28;20172;-67
2022/06/03 07:11:37;;;;;;;10.30;3.55;;;;;;;;;;5039498;28;20104;-68
2022/06/03 07:14:13;;;;;;;11.25;3.88;;;;;;;;;;5051309;28;20114;-67
2022/06/03 07:19:48;;;;;;;10.98;3.58;;;;;;;;;;5049580;28;20067;-67
2022/06/03 07:22:32;;;;;;;9.15;3.10;;;;;;;;;;5050749;28;20089;-66
2022/06/03 07:25:01;;;;;;;10.32;3.38;;;;;;;;;;5050216;28;20074;-66
2022/06/03 07:27:30;;;;;;;9.40;3.28;;;;;;;;;;5050374;28;20056;-68
2022/06/03 07:30:04;;;;;;;8.70;3.10;;;;;;;;;;5050428;28;20120;-65
2022/06/03 07:32:35;;;;;;;8.68;2.95;;;;;;;;;;5049772;28;20076;-66
2022/06/03 07:35:05;;;;;;;10.65;3.70;;;;;;;;;;5050597;28;20145;-70
2022/06/03 07:37:34;;;;;;;14.77;5.03;;;;;;;;;;5050238;28;20515;-67
2022/06/03 07:40:05;;;;;;;12.15;4.50;;;;;;;;;;5049125;28;20119;-67
2022/06/03 07:42:41;;;;;;;10.85;3.40;;;;;;;;;;5050290;28;20052;-67
2022/06/03 07:45:22;;;;;;;10.70;3.63;;;;;;;;;;5049804;28;20045;-66
2022/06/03 07:47:48;;;;;;;9.80;3.20;;;;;;;;;;5050382;28;20449;-66
2022/06/03 07:50:17;;;;;;;8.40;2.80;;;;;;;;;;5050170;28;20132;-66
2022/06/03 07:52:49;;;;;;;10.80;3.08;;;;;;;;;;5050371;28;20180;-67
2022/06/03 07:55:23;;;;;;;14.40;2.85;;;;;;;;;;5050198;28;20049;-66
2022/06/03 07:57:50;;;;;;;9.10;2.70;;;;;;;;;;5050107;28;20111;-65
2022/06/03 08:00:18;;;;;;;9.30;2.70;;;;;;;;;;5050191;28;20086;-67
2022/06/03 08:02:44;;;;;;;9.40;2.70;;;;;;;;;;5050146;28;20048;-67
2022/06/03 08:05:10;;;;;;;;;;;;;;;;;;5050857;28;20053;-68
2022/06/03 08:13:09;;;;;;;10.27;3.03;;;;;;;;;;5049028;28;20370;-67
2022/06/03 08:15:35;;;;;;;;;;;;;;;;;;5050195;28;20446;-66
2022/06/03 08:18:05;;;;;;;9.45;2.47;;;;;;;;;;5048025;28;19965;-67
2022/06/03 08:20:33;;;;;;;8.25;2.50;;;;;;;;;;5049570;28;20077;-67
2022/06/03 08:23:01;;;;;;;9.77;2.97;;;;;;;;;;5049741;28;20187;-66
2022/06/03 08:25:29;;;;;;;6.63;2.42;;;;;;;;;;5049860;28;20131;-68
2022/06/03 08:27:57;;;;;;;10.32;2.78;;;;;;;;;;5049495;28;20048;-66
2022/06/03 08:30:24;;;;;;;7.13;2.60;;;;;;;;;;5049345;28;20120;-66
2022/06/03 08:32:59;;;;;;;6.80;2.85;;;;;;;;;;5047765;28;20375;-66
2022/06/03 08:35:27;;;;;;;8.48;2.50;;;;;;;;;;5049535;28;20052;-66
2022/06/03 08:37:55;;;;;;;8.88;3.20;;;;;;;;;;5047586;28;20385;-65
2022/06/03 08:40:21;;;;;;;8.43;2.92;;;;;;;;;;5048778;28;20442;-66
2022/06/03 08:42:47;;;;;;;9.18;2.55;;;;;;;;;;5048790;28;20119;-66
2022/06/03 08:45:16;;;;;;;7.32;2.67;;;;;;;;;;5048142;28;20122;-66
2022/06/03 08:47:54;;;;;;;7.65;2.70;;;;;;;;;;5047702;28;20120;-66
2022/06/03 08:50:39;;;;;;;8.93;2.53;;;;;;;;;;5049161;28;20199;-66
2022/06/03 08:53:05;;;;;;;8.93;2.67;;;;;;;;;;5048947;28;20159;-65
2022/06/03 08:55:37;;;;;;;9.32;2.60;;;;;;;;;;5048856;28;20041;-66
2022/06/03 08:58:15;;;;;;;6.90;2.40;;;;;;;;;;5047532;28;20133;-67
2022/06/03 09:00:49;;;;;;;8.43;2.63;;;;;;;;;;5047141;28;20049;-67
2022/06/03 09:03:17;;;;;;;8.13;2.40;;;;;;;;;;5048882;28;20064;-67
2022/06/03 09:05:47;;;;;;;8.80;2.92;;;;;;;;;;5049208;28;20044;-66
2022/06/03 09:08:16;;;;;;;7.95;2.33;;;;;;;;;;5047474;28;20096;-66
2022/06/03 09:10:42;;;;;;;8.13;2.50;;;;;;;;;;5048634;28;20052;-66
2022/06/03 09:13:25;;;;;;;8.25;2.83;;;;;;;;;;5048758;28;20350;-67
2022/06/03 09:15:52;;;;;;;12.18;2.97;;;;;;;;;;5047432;28;20118;-67
2022/06/03 09:18:19;;;;;;;9.82;2.97;;;;;;;;;;5048817;28;20052;-67
2022/06/03 09:21:06;;;;;;;7.82;2.47;;;;;;;;;;5046891;28;20068;-67
2022/06/03 09:23:49;;;;;;;9.40;2.47;;;;;;;;;;5048591;28;20151;-66
2022/06/03 09:26:21;;;;;;;8.27;2.85;;;;;;;;;;5048379;28;20147;-68
2022/06/03 09:28:47;;;;;;;8.20;2.60;;;;;;;;;;5030341;28;20103;-66
2022/06/03 09:31:13;;;;;;;8.35;2.72;;;;;;;;;;5048369;28;20052;-66
2022/06/03 09:33:41;;;;;;;10.65;2.70;;;;;;;;;;5048314;28;20072;-67
2022/06/03 09:36:14;;;;;;;8.27;3.08;;;;;;;;;;5048173;28;20179;-64
2022/06/03 09:38:44;;;;;;;10.05;3.10;;;;;;;;;;5048467;28;20151;-65
2022/06/03 09:41:10;;;;;;;9.95;2.78;;;;;;;;;;5046332;28;20136;-65
2022/06/03 09:43:38;;;;;;;10.82;2.88;;;;;;;;;;5047758;28;20472;-64
2022/06/03 09:46:05;;;;;;;7.45;2.65;;;;;;;;;;5047759;28;20060;-65
2022/06/03 09:48:34;;;;;;;11.52;3.35;;;;;;;;;;5046658;28;20059;-65
2022/06/03 09:51:09;;;;;;;8.15;2.50;;;;;;;;;;5048333;28;20182;-66
2022/06/03 09:53:40;;;;;;;9.02;2.65;;;;;;;;;;5046827;28;20068;-67
2022/06/03 09:56:12;;;;;;;7.15;2.67;;;;;;;;;;5048066;28;20045;-64
2022/06/03 09:58:38;;;;;;;7.95;2.90;;;;;;;;;;5048352;28;20052;-66
2022/06/03 10:01:09;;;;;;;10.10;2.97;;;;;;;;;;5047767;28;20549;-65
2022/06/03 10:03:35;;;;;;;9.63;3.08;;;;;;;;;;5046478;28;20132;-64
2022/06/03 10:06:01;;;;;;;8.20;2.85;;;;;;;;;;5045940;28;20151;-65
2022/06/03 10:08:28;;;;;;;;;;;;;;;;;;5048069;28;20052;-66
2022/06/03 10:13:39;;;;;;;7.65;3.38;;;;;;;;;;5048572;28;19928;-64
2022/06/03 10:16:07;;;;;;;9.63;3.10;;;;;;;;;;5051302;28;20198;-63
2022/06/03 10:18:46;;;;;;;9.90;3.40;;;;;;;;;;5049978;28;20068;-64
2022/06/03 10:21:14;;;;;;;9.98;3.65;;;;;;;;;;5051556;28;20107;-66
2022/06/03 10:23:44;;;;;;;9.82;3.50;;;;;;;;;;5051556;28;20128;-66
2022/06/03 10:26:20;;;;;;;10.18;3.50;;;;;;;;;;5051019;28;20069;-65
2022/06/03 10:28:48;;;;;;;12.20;4.13;;;;;;;;;;5051334;28;20057;-65
2022/06/03 10:31:16;;;;;;;14.00;4.28;;;;;;;;;;5050952;28;20076;-65
2022/06/03 10:33:52;;;;;;;9.45;3.50;;;;;;;;;;5049330;28;20052;-65
2022/06/03 10:36:18;;;;;;;10.23;3.45;;;;;;;;;;5051026;28;20051;-65
2022/06/03 10:38:49;;;;;;;9.15;3.75;;;;;;;;;;5051090;28;20067;-68
2022/06/03 10:41:15;;;;;;;7.57;3.50;;;;;;;;;;5051275;28;20247;-64
2022/06/03 10:43:42;;;;;;;11.18;4.28;;;;;;;;;;5050765;28;20503;-69
2022/06/03 10:46:08;;;;;;;14.30;3.40;;;;;;;;;;5048748;28;20167;-64
2022/06/03 10:48:35;;;;;;;8.93;3.53;;;;;;;;;;5050759;28;20049;-64
2022/06/03 10:51:17;;;;;;;10.75;3.50;;;;;;;;;;5050469;28;20088;-64
2022/06/03 11:02:01;;;;;;;8.63;3.33;;;;;;;;;;5051139;28;20060;-65
2022/06/03 11:04:29;;;;;;;8.25;3.13;;;;;;;;;;5050964;28;20045;-67
2022/06/03 11:06:56;;;;;;;8.85;3.33;;;;;;;;;;5049041;28;20400;-68
2022/06/03 11:09:23;;;;;;;13.45;4.03;;;;;;;;;;5050673;28;20045;-65
2022/06/03 11:11:51;;;;;;;13.63;4.45;;;;;;;;;;5050506;28;20064;-64
2022/06/03 11:14:32;;;;;;;9.50;3.60;;;;;;;;;;5050837;28;20137;-64
2022/06/03 11:17:00;;;;;;;8.57;3.45;;;;;;;;;;5050464;28;20128;-64
2022/06/03 11:19:30;;;;;;;8.48;3.30;;;;;;;;;;5050449;28;20049;-66
2022/06/03 11:22:11;;;;;;;12.88;3.83;;;;;;;;;;5050996;28;20049;-66
2022/06/03 11:24:38;;;;;;;10.18;3.97;;;;;;;;;;5049707;28;20434;-66
2022/06/03 11:27:05;;;;;;;11.32;3.72;;;;;;;;;;5050420;28;20061;-66
2022/06/03 11:29:33;;;;;;;8.20;3.13;;;;;;;;;;5050109;28;20045;-64
2022/06/03 11:32:01;;;;;;;10.93;3.33;;;;;;;;;;5050171;28;20056;-67
2022/06/03 11:34:35;;;;;;;8.05;3.30;;;;;;;;;;5050595;28;20147;-65
2022/06/03 11:37:20;;;;;;;9.95;2.70;;;;;;;;;;5049098;28;20111;-65
2022/06/03 11:39:56;;;;;;;9.05;3.17;;;;;;;;;;5050084;28;20139;-66
2022/06/03 11:42:42;;;;;;;9.50;3.20;;;;;;;;;;5049817;28;20112;-64
2022/06/03 11:45:08;;;;;;;8.57;2.97;;;;;;;;;;5049667;28;20315;-65
2022/06/03 11:47:40;;;;;;;8.27;3.00;;;;;;;;;;5049325;28;20080;-64
2022/06/03 11:50:08;;;;;;;8.98;3.20;;;;;;;;;;5049639;28;20091;-64
2022/06/03 11:52:34;;;;;;;9.93;3.63;;;;;;;;;;5049603;28;20083;-64
2022/06/03 11:55:00;;;;;;;;;;;;;;;;;;5050201;28;20052;-64
2022/06/03 11:57:26;;;;;;;8.55;3.10;;;;;;;;;;5050297;28;19920;-66
2022/06/03 11:59:52;;;;;;;;;;;;;;;;;;5050415;28;20041;-64
2022/06/03 12:02:27;;;;;;;10.45;3.85;;;;;;;;;;5049387;28;19921;-64
2022/06/03 12:04:59;;;;;;;8.60;3.40;;;;;;;;;;5049451;28;20152;-66
2022/06/03 12:07:25;;;;;;;7.75;3.20;;;;;;;;;;5050136;28;20057;-64
2022/06/03 12:10:11;;;;;;;11.68;4.18;;;;;;;;;;5049658;28;20129;-65
2022/06/03 12:15:31;;;;;;;8.70;3.50;;;;;;;;;;5049634;28;20137;-64
2022/06/03 12:18:17;;;;;;;8.93;3.20;;;;;;;;;;5049341;28;20457;-67
2022/06/03 12:20:49;;;;;;;8.93;3.58;;;;;;;;;;5049611;28;20130;-66
2022/06/03 12:23:15;;;;;;;9.77;3.38;;;;;;;;;;5050089;28;20143;-67
2022/06/03 12:25:43;;;;;;;13.80;3.50;;;;;;;;;;5032927;28;20516;-64
2022/06/03 12:28:18;;;;;;;10.57;3.38;;;;;;;;;;5049916;28;20192;-65
2022/06/03 12:30:44;;;;;;;11.02;3.10;;;;;;;;;;5049202;28;20049;-66
2022/06/03 12:33:10;;;;;;;;;;;;;;;;;;5049557;28;20072;-66
2022/06/03 12:35:47;;;;;;;13.77;3.50;;;;;;;;;;5048090;28;20325;-65
2022/06/03 12:38:23;;;;;;;11.50;4.13;;;;;;;;;;5049306;28;20070;-66
2022/06/03 12:41:05;;;;;;;8.52;3.40;;;;;;;;;;5049073;28;20068;-64
2022/06/03 12:43:46;;;;;;;11.18;3.17;;;;;;;;;;5048589;28;20049;-66
2022/06/03 12:46:36;;;;;;;10.52;4.05;;;;;;;;;;5048699;28;20144;-64
2022/06/03 12:49:04;;;;;;;8.48;3.03;;;;;;;;;;5045591;28;20127;-65
2022/06/03 12:51:33;;;;;;;9.23;3.00;;;;;;;;;;5048373;28;20156;-65
2022/06/03 12:54:08;;;;;;;8.98;2.80;;;;;;;;;;5047195;28;20079;-66
2022/06/03 12:56:40;;;;;;;8.23;2.65;;;;;;;;;;5048062;28;20099;-65
2022/06/03 12:59:20;;;;;;;10.80;2.80;;;;;;;;;;5048718;28;20103;-66
2022/06/03 13:02:05;;;;;;;11.00;3.00;;;;;;;;;;5048044;28;20354;-65
2022/06/03 13:04:40;;;;;;;7.82;3.00;;;;;;;;;;5048220;28;20099;-68
2022/06/03 13:07:24;;;;;;;8.70;2.70;;;;;;;;;;5048487;28;20131;-67
2022/06/03 13:09:50;;;;;;;11.35;2.95;;;;;;;;;;5048112;28;20468;-69
2022/06/03 13:12:16;;;;;;;;;;;;;;;;;;5049160;28;20170;-67
2022/06/03 13:14:43;;;;;;;7.72;2.28;;;;;;;;;;5047917;28;19960;-66
2022/06/03 13:17:23;;;;;;;8.73;2.70;;;;;;;;;;5048369;28;20496;-69
2022/06/03 13:19:57;;;;;;;9.63;3.13;;;;;;;;;;5048143;28;20065;-68
2022/06/03 13:22:26;;;;;;;8.25;2.80;;;;;;;;;;5048498;28;20045;-70
2022/06/03 13:25:28;;;;;;;10.32;2.72;;;;;;;;;;5048176;28;20107;-66
2022/06/03 13:28:15;;;;;;;10.30;2.63;;;;;;;;;;5008835;28;20121;-67
2022/06/03 13:30:41;;;;;;;7.57;2.40;;;;;;;;;;5046578;28;20073;-69
2022/06/03 13:33:07;;;;;;;;;;;;;;;;;;5048075;28;20350;-72
2022/06/03 13:35:40;;;;;;;10.20;2.60;;;;;;;;;;5046538;28;20383;-71
2022/06/03 13:38:10;;;;;;;29.20;3.92;;;;;;;;;;5048151;28;20110;-69
2022/06/03 13:40:36;;;;;;;7.97;2.50;;;;;;;;;;5048213;28;20366;-69
2022/06/03 13:43:24;;;;;;;8.00;2.60;;;;;;;;;;5047161;28;20076;-66
2022/06/03 13:45:56;;;;;;;9.07;2.72;;;;;;;;;;5047904;28;20103;-70
2022/06/03 13:48:38;;;;;;;6.43;2.35;;;;;;;;;;5052143;28;20125;-70
2022/06/03 13:51:22;;;;;;;9.27;2.58;;;;;;;;;;5054607;28;20515;-72
2022/06/03 13:53:53;;;;;;;7.13;2.40;;;;;;;;;;5054057;28;20453;-69
2022/06/03 13:56:22;;;;;;;8.20;2.40;;;;;;;;;;5054689;28;20057;-66
2022/06/03 13:58:48;;;;;;;6.30;2.22;;;;;;;;;;5055247;28;20109;-67
2022/06/03 14:01:17;;;;;;;13.40;2.65;;;;;;;;;;5054475;28;20113;-68
2022/06/03 14:03:49;;;;;;;8.90;2.30;;;;;;;;;;5054705;28;20048;-65
2022/06/03 14:06:18;;;;;;;8.20;2.30;;;;;;;;;;5054388;28;20091;-66
2022/06/03 14:08:50;;;;;;;10.40;2.55;;;;;;;;;;5054340;28;20067;-67
2022/06/03 14:11:48;;;;;;;8.85;2.45;;;;;;;;;;5054716;28;20056;-70
2022/06/03 14:14:27;;;;;;;8.85;2.55;;;;;;;;;;5041996;28;20053;-71
2022/06/03 14:16:53;;;;;;;6.85;2.00;;;;;;;;;;5054427;28;20065;-69
2022/06/03 14:19:20;;;;;;;;;;;;;;;;;;5054755;28;20133;-67
2022/06/03 14:21:49;;;;;;;8.27;1.87;;;;;;;;;;5053857;28;19971;-70
2022/06/03 14:24:15;;;;;;;8.98;2.40;;;;;;;;;;5054037;28;20294;-67
2022/06/03 14:26:45;;;;;;;6.88;2.08;;;;;;;;;;5052404;28;20147;-66
2022/06/03 14:29:30;;;;;;;8.40;2.20;;;;;;;;;;5054253;28;20099;-67
2022/06/03 14:31:57;;;;;;;6.40;1.98;;;;;;;;;;5052545;28;20152;-68
2022/06/03 14:34:35;;;;;;;7.20;2.13;;;;;;;;;;5054124;28;20049;-66
2022/06/03 14:37:02;;;;;;;7.25;2.10;;;;;;;;;;5054482;28;20099;-67
2022/06/03 14:39:31;;;;;;;6.72;2.05;;;;;;;;;;5054143;28;20049;-68
2022/06/03 14:42:00;;;;;;;10.05;2.13;;;;;;;;;;5052580;28;20151;-68
2022/06/03 14:44:31;;;;;;;8.88;2.30;;;;;;;;;;5053945;28;20041;-70
2022/06/03 14:47:03;;;;;;;7.13;2.25;;;;;;;;;;5054034;28;20054;-77
2022/06/03 14:49:34;;;;;;;8.30;2.08;;;;;;;;;;5054255;28;20040;-70
2022/06/03 14:52:05;;;;;;;6.78;2.20;;;;;;;;;;5053919;28;20053;-72
2022/06/03 14:54:37;;;;;;;6.22;2.13;;;;;;;;;;5052812;28;20041;-70
2022/06/03 14:57:05;;;;;;;9.50;2.20;;;;;;;;;;5054207;28;20191;-69
2022/06/03 14:59:50;;;;;;;5.32;2.00;;;;;;;;;;5051028;28;20045;-70
2022/06/03 15:02:18;;;;;;;6.38;2.22;;;;;;;;;;5050840;28;20045;-70
2022/06/03 15:04:49;;;;;;;7.57;2.03;;;;;;;;;;5049028;28;20049;-75
2022/06/03 15:07:20;;;;;;;10.57;2.22;;;;;;;;;;5050645;28;20100;-74
2022/06/03 15:09:50;;;;;;;7.80;1.88;;;;;;;;;;5050774;28;20072;-71
2022/06/03 15:12:16;;;;;;;6.50;2.10;;;;;;;;;;5050818;28;20049;-71
2022/06/03 15:14:42;;;;;;;;;;;;;;;;;;5051146;28;20127;-70
2022/06/03 15:17:11;;;;;;;6.47;2.00;;;;;;;;;;5050707;28;19932;-71
2022/06/03 15:19:37;;;;;;;7.03;2.20;;;;;;;;;;5050775;28;20146;-69
2022/06/03 15:22:05;;;;;;;6.32;2.28;;;;;;;;;;5050955;28;20106;-72
2022/06/03 15:24:31;;;;;;;6.07;2.00;;;;;;;;;;5050455;28;20110;-73
2022/06/03 15:27:02;;;;;;;7.25;2.10;;;;;;;;;;5050643;28;20041;-72
2022/06/03 15:29:31;;;;;;;5.68;2.15;;;;;;;;;;5050422;28;20123;-74
2022/06/03 15:32:01;;;;;;;6.07;2.13;;;;;;;;;;5050186;28;20110;-73
2022/06/03 15:34:34;;;;;;;5.90;2.38;;;;;;;;;;5050284;28;20111;-68
2022/06/03 15:37:02;;;;;;;8.07;2.75;;;;;;;;;;5050426;28;20053;-68
2022/06/03 15:39:30;;;;;;;8.68;2.42;;;;;;;;;;5049977;28;20095;-70
2022/06/03 15:41:58;;;;;;;14.38;2.60;;;;;;;;;;5049653;28;20068;-69
2022/06/03 15:44:28;;;;;;;6.65;2.35;;;;;;;;;;5049995;28;20462;-70